Time;durP1;ratioP1;P1;durP2;ratioP2;P2;SDS_P1;SDS_P2;PMS_P1;PMS_P2;Temp;Humidity;BMP_temperature;BMP_pressure;BME280_temperature;BME280_humidity;BME280_pressure;Samples;Min_cycle;Max_cycle;Signal;HPM_P1;HPM_P2
2021/12/05 00:16:56;;;;;;;36.10;18.50;;;;;;;-2.09;81.61;99085.34;106261;1315;22486;-64
2021/12/05 00:26:18;;;;;;;44.50;25.30;;;;;;;-2.28;82.32;99075.10;105674;1322;22624;-66
2021/12/05 00:29:06;;;;;;;49.60;27.10;;;;;;;-2.25;82.45;99077.27;105455;1326;138844;-66
2021/12/05 00:43:14;;;;;;;36.00;20.90;;;;;;;-2.15;82.24;99084.61;104984;1328;22612;-65
2021/12/05 01:04:31;;;;;;;29.70;17.60;;;;;;;-2.11;81.72;99100.02;105149;1325;140314;-66
2021/12/05 01:17:47;;;;;;;28.30;16.60;;;;;;;-2.18;82.18;99096.20;105565;1316;138481;-66
2021/12/05 01:20:17;;;;;;;29.10;16.40;;;;;;;-2.18;82.13;99098.52;106205;1316;23301;-66
2021/12/05 01:22:58;;;;;;;27.80;17.10;;;;;;;-2.16;82.16;99103.52;106021;1318;138223;-66
2021/12/05 01:25:43;;;;;;;23.80;14.60;;;;;;;-2.16;82.04;99106.69;106196;1316;22436;-66
2021/12/05 01:38:37;;;;;;;26.20;15.70;;;;;;;-2.17;81.98;99106.27;106219;1316;23331;-66
2021/12/05 01:44:31;;;;;;;26.00;17.30;;;;;;;-2.19;81.85;99102.20;106074;1319;22483;-66
2021/12/05 02:07:48;;;;;;;29.70;17.80;;;;;;;-2.30;81.82;99105.36;106169;1316;22523;-66
2021/12/05 02:11:35;;;;;;;28.80;17.30;;;;;;;-2.36;82.12;99084.41;106122;1319;138608;-66
2021/12/05 02:39:18;;;;;;;28.50;17.10;;;;;;;-2.51;82.07;99101.03;105698;1321;22848;-66
2021/12/05 02:41:48;;;;;;;29.50;17.50;;;;;;;-2.54;82.14;99093.22;105397;1322;138589;-66
2021/12/05 02:46:58;;;;;;;24.20;16.10;;;;;;;-2.55;82.35;99089.77;105546;1322;138949;-65
2021/12/05 02:49:27;;;;;;;31.10;16.80;;;;;;;-2.57;82.50;99083.55;105643;1321;22484;-65
2021/12/05 02:51:59;;;;;;;33.80;18.30;;;;;;;-2.57;82.61;99080.35;105523;1324;138481;-65
2021/12/05 02:54:31;;;;;;;25.60;16.00;;;;;;;-2.57;82.78;99076.07;105919;1322;22490;-66
2021/12/05 02:57:00;;;;;;;28.10;15.90;;;;;;;-2.57;82.83;99070.91;106100;1318;22450;-66
2021/12/05 03:02:11;;;;;;;27.00;15.90;;;;;;;-2.56;83.17;99060.90;106013;1316;23213;-66
2021/12/05 03:04:45;;;;;;;26.90;15.10;;;;;;;-2.55;83.26;99061.66;106118;1316;138591;-66
2021/12/05 03:07:14;;;;;;;31.30;17.70;;;;;;;-2.52;83.33;99064.29;106279;1315;23221;-66
2021/12/05 03:09:43;;;;;;;33.10;18.50;;;;;;;-2.51;83.24;99062.79;106085;1318;138531;-65
2021/12/05 03:12:17;;;;;;;33.60;18.40;;;;;;;-2.48;83.13;99059.13;106254;1315;23351;-66
2021/12/05 03:14:46;;;;;;;31.90;17.10;;;;;;;-2.49;83.25;99052.44;106340;1317;22590;-66
2021/12/05 03:17:32;;;;;;;27.80;16.20;;;;;;;-2.49;83.30;99044.80;106119;1315;139225;-66
2021/12/05 03:20:01;;;;;;;28.60;16.20;;;;;;;-2.51;83.16;99036.41;106211;1315;22419;-66
2021/12/05 03:22:31;;;;;;;33.70;18.00;;;;;;;-2.52;83.36;99028.76;106039;1316;138538;-66
2021/12/05 03:25:00;;;;;;;28.40;16.30;;;;;;;-2.50;83.49;99024.94;106187;1320;22518;-66
2021/12/05 03:27:29;;;;;;;30.90;16.50;;;;;;;-2.48;83.47;99027.71;106115;1316;201658;-66
2021/12/05 03:29:58;;;;;;;27.50;17.70;;;;;;;-2.47;83.46;99027.07;106098;1318;138613;-65
2021/12/05 03:32:27;;;;;;;26.70;15.90;;;;;;;-2.46;83.47;99029.17;106185;1315;22489;-65
2021/12/05 03:34:56;;;;;;;28.20;16.10;;;;;;;-2.45;83.59;99033.27;106125;1322;139298;-66
2021/12/05 03:37:24;;;;;;;24.60;15.40;;;;;;;-2.44;83.58;99030.16;105842;1316;23036;-65
2021/12/05 03:39:56;;;;;;;25.30;16.00;;;;;;;-2.43;83.52;99029.80;106074;1318;138611;-66
2021/12/05 03:42:25;;;;;;;29.10;17.50;;;;;;;-2.42;83.70;99032.77;106174;1318;22503;-66
2021/12/05 03:44:55;;;;;;;24.90;15.40;;;;;;;-2.41;83.64;99033.64;106246;1320;22309;-66
2021/12/05 03:47:27;;;;;;;25.70;16.50;;;;;;;-2.41;83.66;99033.31;106102;1321;138877;-66
2021/12/05 03:49:56;;;;;;;24.30;15.20;;;;;;;-2.43;83.54;99032.10;106272;1316;22467;-66
2021/12/05 03:52:24;;;;;;;28.40;16.70;;;;;;;-2.45;83.61;99031.85;106113;1315;138711;-66
2021/12/05 03:54:52;;;;;;;26.60;17.10;;;;;;;-2.47;83.53;99031.71;106354;1315;22458;-66
2021/12/05 03:57:20;;;;;;;27.50;15.80;;;;;;;-2.48;83.55;99027.92;106328;1315;22352;-66
2021/12/05 03:59:49;;;;;;;28.40;16.30;;;;;;;-2.48;83.51;99023.73;106149;1316;139429;-66
2021/12/05 04:02:17;;;;;;;29.20;17.60;;;;;;;-2.51;83.40;99030.21;106177;1317;22536;-65
2021/12/05 04:04:45;;;;;;;26.10;15.50;;;;;;;-2.53;83.66;99026.70;106211;1316;138957;-66
2021/12/05 04:07:15;;;;;;;27.80;17.40;;;;;;;-2.54;83.49;99029.44;106196;1319;22487;-65
2021/12/05 04:09:44;;;;;;;25.70;15.40;;;;;;;-2.55;83.39;99030.15;106138;1315;138314;-65
2021/12/05 04:12:27;;;;;;;22.30;14.50;;;;;;;-2.56;83.48;99038.23;106228;1315;22484;-66
2021/12/05 04:14:55;;;;;;;26.20;15.10;;;;;;;-2.56;83.34;99040.60;106246;1316;22476;-65
2021/12/05 04:17:24;;;;;;;26.30;15.50;;;;;;;-2.58;83.37;99043.11;106133;1316;139361;-66
2021/12/05 04:19:56;;;;;;;23.00;14.20;;;;;;;-2.57;83.49;99050.52;106329;1315;22468;-64
2021/12/05 04:22:24;;;;;;;25.60;15.00;;;;;;;-2.57;83.30;99052.14;106144;1316;139202;-65
2021/12/05 04:24:53;;;;;;;25.40;15.60;;;;;;;-2.60;83.14;99054.80;106302;1316;22454;-65
2021/12/05 04:27:22;;;;;;;38.10;19.60;;;;;;;-2.62;83.09;99052.96;106207;1318;22481;-66
2021/12/05 04:29:51;;;;;;;40.80;23.30;;;;;;;-2.63;83.27;99056.98;106139;1315;138346;-66
2021/12/05 04:32:19;;;;;;;39.00;22.10;;;;;;;-2.64;83.14;99064.78;106269;1315;22488;-66
2021/12/05 04:34:47;;;;;;;35.00;20.50;;;;;;;-2.66;83.03;99066.17;106095;1316;138477;-66
2021/12/05 04:37:17;;;;;;;30.50;18.60;;;;;;;-2.68;83.10;99062.39;106242;1316;22476;-66
2021/12/05 04:39:46;;;;;;;35.50;20.10;;;;;;;-2.73;82.95;99057.10;106171;1316;139094;-66
2021/12/05 04:42:14;;;;;;;40.60;22.60;;;;;;;-2.78;82.98;99056.35;106231;1316;22457;-66
2021/12/05 04:44:43;;;;;;;54.20;27.80;;;;;;;-2.83;82.93;99058.65;106322;1316;22614;-66
2021/12/05 04:47:11;;;;;;;50.80;23.70;;;;;;;-2.89;82.98;99054.89;106114;1316;139878;-66
2021/12/05 04:49:41;;;;;;;50.20;23.20;;;;;;;-2.93;82.86;99061.23;106250;1317;22548;-66
2021/12/05 04:52:11;;;;;;;44.40;22.50;;;;;;;-2.95;83.00;99059.43;106248;1316;138627;-66
2021/12/05 04:54:39;;;;;;;33.60;18.30;;;;;;;-2.95;83.11;99058.90;106270;1315;22270;-65
2021/12/05 04:57:08;;;;;;;29.90;16.00;;;;;;;-2.96;83.08;99066.80;106193;1316;22456;-66
2021/12/05 04:59:37;;;;;;;28.20;15.70;;;;;;;-2.98;83.04;99072.55;106124;1319;138363;-65
2021/12/05 05:02:06;;;;;;;34.30;15.90;;;;;;;-3.01;82.80;99077.99;106197;1316;22556;-65
2021/12/05 05:04:54;;;;;;;24.60;14.70;;;;;;;-3.02;82.74;99083.46;106150;1316;138265;-65
2021/12/05 05:07:26;;;;;;;25.60;14.90;;;;;;;-3.02;82.77;99084.93;106240;1316;22521;-65
2021/12/05 05:09:59;;;;;;;26.50;14.80;;;;;;;-3.03;82.70;99087.77;106162;1315;140741;-65
2021/12/05 05:12:28;;;;;;;23.50;14.20;;;;;;;-3.05;82.43;99088.65;106216;1316;22480;-65
2021/12/05 05:14:56;;;;;;;26.20;14.80;;;;;;;-3.07;82.48;99089.94;105837;1315;22465;-65
2021/12/05 05:17:25;;;;;;;25.30;15.30;;;;;;;-3.07;82.38;99085.94;106190;1315;139349;-65
2021/12/05 05:19:59;;;;;;;28.30;15.10;;;;;;;-3.08;82.25;99087.32;106226;1316;22464;-65
2021/12/05 05:22:38;;;;;;;36.90;20.40;;;;;;;-3.09;82.27;99089.39;106162;1316;139129;-65
2021/12/05 05:25:40;;;;;;;27.70;18.60;;;;;;;-3.10;82.12;99090.29;106259;1315;22462;-66
2021/12/05 05:39:00;;;;;;;24.90;16.60;;;;;;;-3.13;81.92;99083.45;106192;1320;23479;-66
2021/12/05 05:50:07;;;;;;;32.80;20.00;;;;;;;-3.19;81.16;99065.85;105666;1321;23187;-66
2021/12/05 05:52:36;;;;;;;32.30;17.90;;;;;;;-3.21;81.00;99069.22;105569;1321;140324;-67
2021/12/05 05:55:05;;;;;;;36.90;19.10;;;;;;;-3.23;81.12;99073.55;105831;1326;22495;-66
2021/12/05 06:00:21;;;;;;;35.30;19.20;;;;;;;-3.26;80.91;99075.29;105657;1321;138723;-66
2021/12/05 06:05:37;;;;;;;26.90;15.30;;;;;;;-3.28;80.78;99086.95;105496;1321;139057;-66
2021/12/05 06:08:05;;;;;;;23.90;14.60;;;;;;;-3.30;80.72;99092.29;105885;1321;22334;-66
2021/12/05 06:10:33;;;;;;;24.80;14.40;;;;;;;-3.30;80.64;99086.63;105764;1322;138735;-65
2021/12/05 06:13:01;;;;;;;22.10;13.50;;;;;;;-3.30;80.58;99088.80;106065;1320;22525;-65
2021/12/05 06:15:29;;;;;;;24.60;14.10;;;;;;;-3.30;80.35;99090.02;106283;1316;23638;-60
2021/12/05 06:18:00;;;;;;;23.80;14.00;;;;;;;-3.30;80.41;99089.77;106096;1316;138978;-60
2021/12/05 06:20:29;;;;;;;20.20;13.40;;;;;;;-3.28;80.41;99084.85;106297;1316;23166;-60
2021/12/05 06:23:00;;;;;;;23.60;14.60;;;;;;;-3.27;80.39;99089.02;106205;1316;138785;-60
2021/12/05 06:25:30;;;;;;;23.60;14.20;;;;;;;-3.26;80.32;99091.50;106290;1316;22483;-60
2021/12/05 06:28:01;;;;;;;26.70;14.30;;;;;;;-3.24;80.41;99094.08;106331;1316;22490;-60
2021/12/05 06:39:21;;;;;;;27.80;13.90;;;;;;;-3.15;80.34;99109.98;106329;1316;23270;-60
2021/12/05 06:41:59;;;;;;;25.70;15.80;;;;;;;-3.13;80.35;99114.33;105843;1319;138786;-60
2021/12/05 06:47:14;;;;;;;27.10;16.00;;;;;;;-3.08;80.48;99119.02;106142;1317;139337;-61
2021/12/05 06:49:43;;;;;;;28.70;15.60;;;;;;;-3.05;80.52;99124.96;106369;1319;22378;-60
2021/12/05 06:52:31;;;;;;;24.80;15.40;;;;;;;-3.03;80.48;99129.14;106199;1315;138722;-60
2021/12/05 06:54:59;;;;;;;27.10;15.70;;;;;;;-3.01;80.33;99130.60;106318;1315;22410;-61
2021/12/05 06:57:27;;;;;;;25.00;15.40;;;;;;;-2.97;80.31;99134.48;106334;1315;22385;-60
2021/12/05 06:59:56;;;;;;;23.90;14.80;;;;;;;-2.95;80.27;99135.09;106194;1316;139848;-60
2021/12/05 07:02:24;;;;;;;29.30;16.30;;;;;;;-2.90;80.14;99141.48;106344;1316;23532;-60
2021/12/05 07:05:18;;;;;;;25.20;14.70;;;;;;;-2.87;80.09;99142.46;105563;1315;138865;-60
2021/12/05 07:07:47;;;;;;;22.30;14.50;;;;;;;-2.81;79.87;99137.02;106278;1316;22427;-60
2021/12/05 07:10:17;;;;;;;31.70;17.50;;;;;;;-2.77;79.93;99139.02;106228;1316;139521;-60
2021/12/05 07:21:26;;;;;;;29.50;17.50;;;;;;;-2.58;79.17;99133.13;106231;1315;22426;-61
2021/12/05 07:26:52;;;;;;;30.10;17.80;;;;;;;-2.49;78.70;99127.27;106200;1316;22547;-59
2021/12/05 07:42:04;;;;;;;29.10;15.80;;;;;;;-2.23;77.92;99134.55;104983;1328;137549;-57
2021/12/05 07:44:33;;;;;;;29.90;17.20;;;;;;;-2.21;77.77;99140.55;104856;1331;164424;-58
2021/12/05 07:47:01;;;;;;;35.50;19.40;;;;;;;-2.20;77.66;99144.95;105082;1326;139515;-58
2021/12/05 07:49:30;;;;;;;29.80;17.20;;;;;;;-2.20;77.70;99146.44;105167;1328;22508;-58
2021/12/05 07:51:58;;;;;;;32.00;17.30;;;;;;;-2.18;77.80;99148.19;105246;1328;22467;-58
2021/12/05 07:54:40;;;;;;;31.00;18.10;;;;;;;-2.16;77.57;99147.13;105127;1328;137503;-58
2021/12/05 07:57:18;;;;;;;26.40;15.50;;;;;;;-2.14;77.62;99153.75;101850;1332;22729;-55
2021/12/05 08:16:40;;;;;;;25.50;13.90;;;;;;;-1.77;75.99;99168.31;100953;1328;138135;-56
2021/12/05 08:19:08;;;;;;;28.30;16.70;;;;;;;-1.72;75.42;99170.49;101172;1333;24342;-54
2021/12/05 08:21:36;;;;;;;26.10;15.60;;;;;;;-1.69;75.38;99160.75;105256;1328;23295;-57
2021/12/05 08:24:04;;;;;;;22.60;15.20;;;;;;;-1.65;75.45;99160.60;105091;1328;138573;-57
2021/12/05 08:26:34;;;;;;;30.30;16.60;;;;;;;-1.62;75.18;99161.95;105257;1328;22562;-58
2021/12/05 08:34:46;;;;;;;26.90;16.50;;;;;;;-1.50;74.30;99152.70;105223;1328;22412;-58
2021/12/05 10:01:44;;;;;;;34.20;19.70;;;;;;;-0.39;72.03;99124.63;104838;1327;137921;-58
2021/12/05 10:02:35;;;;;;;32.20;19.40;;;;;;;-0.24;71.50;99132.13;106071;1319;22702;-58
2021/12/05 10:10:48;;;;;;;33.80;19.00;;;;;;;-0.16;70.38;99140.79;106123;1325;22504;-58
2021/12/05 10:13:24;;;;;;;33.90;18.90;;;;;;;-0.13;70.02;99140.98;105879;1319;138415;-57
2021/12/05 10:16:22;;;;;;;32.40;18.20;;;;;;;-0.10;70.16;99145.63;104888;1320;24278;-55
2021/12/05 10:38:04;;;;;;;29.00;17.50;;;;;;;0.20;69.76;99151.31;105987;1323;139219;-55
2021/12/05 10:41:19;;;;;;;31.70;18.20;;;;;;;0.27;70.30;99156.33;106135;1318;23421;-55
2021/12/05 10:43:50;;;;;;;27.10;17.10;;;;;;;0.33;69.54;99160.39;105618;1320;138896;-55
2021/12/05 10:46:20;;;;;;;36.30;20.70;;;;;;;0.36;69.40;99157.64;106343;1316;23103;-55
2021/12/05 10:49:02;;;;;;;31.90;19.50;;;;;;;0.39;68.82;99147.14;106207;1316;138447;-55
2021/12/05 10:51:57;;;;;;;31.20;19.20;;;;;;;0.38;68.62;99140.09;106251;1316;22445;-55
2021/12/05 10:54:26;;;;;;;31.10;17.90;;;;;;;0.37;68.15;99142.31;106192;1316;138784;-55
2021/12/05 10:56:59;;;;;;;30.90;17.70;;;;;;;0.36;68.28;99148.36;106332;1316;22480;-55
2021/12/05 10:59:36;;;;;;;29.20;19.10;;;;;;;0.33;67.65;99148.48;106314;1316;22487;-56
2021/12/05 11:02:11;;;;;;;27.40;18.30;;;;;;;0.33;67.99;99151.77;106133;1316;138002;-55
2021/12/05 11:04:42;;;;;;;33.90;19.30;;;;;;;0.32;68.38;99150.24;106274;1322;23205;-55
2021/12/05 11:07:18;;;;;;;38.10;20.70;;;;;;;0.33;68.23;99146.33;106263;1316;138073;-56
2021/12/05 11:09:59;;;;;;;26.30;17.00;;;;;;;0.34;67.99;99138.05;106286;1316;22391;-55
2021/12/05 11:12:33;;;;;;;37.00;20.10;;;;;;;0.33;67.70;99134.04;106197;1316;139229;-55
2021/12/05 11:15:07;;;;;;;29.60;17.60;;;;;;;0.31;67.81;99130.73;106257;1316;23331;-56
2021/12/05 11:17:39;;;;;;;32.50;19.00;;;;;;;0.29;67.83;99126.40;106366;1316;22454;-58
2021/12/05 11:20:12;;;;;;;33.60;19.40;;;;;;;0.26;67.33;99127.32;106114;1316;137657;-58
2021/12/05 11:22:44;;;;;;;30.50;18.00;;;;;;;0.25;67.77;99125.38;106304;1316;23284;-58
2021/12/05 11:25:35;;;;;;;33.10;19.50;;;;;;;0.25;68.20;99118.33;106216;1317;138299;-58
2021/12/05 11:28:07;;;;;;;31.50;18.20;;;;;;;0.27;68.03;99123.66;106347;1316;23215;-58
2021/12/05 11:30:36;;;;;;;32.30;16.30;;;;;;;0.27;67.67;99118.42;105873;1316;139462;-58
2021/12/05 11:33:07;;;;;;;24.30;16.70;;;;;;;0.26;67.37;99116.56;106300;1315;22592;-58
2021/12/05 11:35:45;;;;;;;29.70;17.40;;;;;;;0.25;67.20;99118.05;106237;1315;22461;-58
2021/12/05 11:38:13;;;;;;;30.90;17.40;;;;;;;0.25;66.92;99115.86;106212;1315;138403;-58
2021/12/05 11:40:50;;;;;;;36.30;20.70;;;;;;;0.25;66.98;99118.91;106311;1316;23262;-57
2021/12/05 11:43:28;;;;;;;32.20;16.70;;;;;;;0.23;67.05;99121.29;106225;1320;137713;-58
2021/12/05 11:46:16;;;;;;;37.50;17.70;;;;;;;0.22;66.88;99124.73;106303;1316;23086;-58
2021/12/05 11:48:54;;;;;;;32.90;18.10;;;;;;;0.21;67.08;99123.30;106144;1316;138234;-59
2021/12/05 11:51:32;;;;;;;30.00;17.70;;;;;;;0.22;67.51;99121.98;106312;1316;23411;-58
2021/12/05 11:54:05;;;;;;;33.10;18.70;;;;;;;0.22;67.91;99118.52;106218;1315;139302;-58
2021/12/05 11:56:56;;;;;;;42.90;23.20;;;;;;;0.23;67.93;99115.97;106347;1316;23145;-58
2021/12/05 11:59:29;;;;;;;40.30;25.50;;;;;;;0.23;67.75;99114.52;106325;1316;22422;-58
2021/12/05 12:02:03;;;;;;;32.00;18.70;;;;;;;0.22;67.93;99110.52;106137;1315;138001;-58
2021/12/05 12:04:42;;;;;;;36.50;20.30;;;;;;;0.22;67.83;99113.08;106296;1316;22471;-58
2021/12/05 12:07:22;;;;;;;56.90;28.00;;;;;;;0.19;68.09;99108.94;106100;1315;138217;-58
2021/12/05 12:09:54;;;;;;;39.80;23.10;;;;;;;0.18;68.07;99105.93;106318;1316;22434;-58
2021/12/05 12:12:22;;;;;;;47.70;24.30;;;;;;;0.16;68.65;99101.55;106257;1316;138903;-57
2021/12/05 12:14:50;;;;;;;46.80;30.40;;;;;;;0.16;68.70;99102.41;106217;1316;22463;-57
2021/12/05 12:17:19;;;;;;;65.30;42.20;;;;;;;0.17;69.03;99104.65;106329;1316;22463;-58
2021/12/05 12:19:48;;;;;;;42.50;25.80;;;;;;;0.16;69.24;99104.52;106201;1316;139515;-57
2021/12/05 12:22:19;;;;;;;121.20;50.20;;;;;;;0.14;69.68;99112.32;106357;1316;22490;-57
2021/12/05 12:24:55;;;;;;;71.70;33.50;;;;;;;0.12;70.06;99117.46;106166;1316;139071;-58
2021/12/05 12:27:23;;;;;;;46.30;23.70;;;;;;;0.09;70.47;99118.32;106342;1316;22548;-58
2021/12/05 12:29:52;;;;;;;40.50;21.40;;;;;;;0.07;71.02;99116.12;106195;1315;138117;-58
2021/12/05 12:32:23;;;;;;;53.20;31.40;;;;;;;0.05;71.08;99117.46;106158;1316;23735;-58
2021/12/05 12:34:57;;;;;;;44.50;21.60;;;;;;;0.01;71.87;99114.90;106306;1316;22616;-58
2021/12/05 12:37:26;;;;;;;46.70;22.70;;;;;;;-0.04;72.00;99121.23;106248;1316;138076;-58
2021/12/05 12:39:54;;;;;;;36.90;20.90;;;;;;;-0.07;72.24;99123.40;106341;1316;22503;-58
2021/12/05 12:42:28;;;;;;;41.00;23.10;;;;;;;-0.10;72.30;99127.08;106239;1316;138682;-58
2021/12/05 12:44:57;;;;;;;69.50;38.40;;;;;;;-0.13;72.77;99126.27;106341;1316;22526;-57
2021/12/05 12:47:40;;;;;;;107.10;39.90;;;;;;;-0.14;72.61;99123.57;106293;1320;22525;-58
2021/12/05 12:50:34;;;;;;;107.50;39.20;;;;;;;-0.19;72.93;99123.84;106221;1316;138333;-59
2021/12/05 12:53:12;;;;;;;156.90;52.10;;;;;;;-0.26;72.90;99122.81;106345;1317;22530;-59
2021/12/05 12:55:51;;;;;;;149.80;89.50;;;;;;;-0.34;73.40;99122.15;106206;1317;138134;-58
2021/12/05 12:58:40;;;;;;;127.70;66.20;;;;;;;-0.42;73.47;99124.04;105571;1315;22677;-59
2021/12/05 13:01:30;;;;;;;176.70;69.50;;;;;;;-0.50;73.83;99121.20;106239;1316;138576;-59
2021/12/05 13:09:57;;;;;;;151.80;55.70;;;;;;;-0.62;74.65;99135.74;106245;1316;139199;-58
2021/12/05 13:10:40;;;;;;;267.00;93.30;;;;;;;-0.70;74.61;99136.29;106274;1315;22496;-58
2021/12/05 13:13:17;;;;;;;80.10;37.30;;;;;;;-0.77;74.99;99144.28;106219;1316;138694;-58
2021/12/05 13:15:45;;;;;;;95.30;49.90;;;;;;;-0.80;75.19;99145.44;106281;1315;22567;-59
2021/12/05 13:18:13;;;;;;;169.00;63.60;;;;;;;-0.84;75.33;99142.69;106177;1316;138387;-59
2021/12/05 13:20:42;;;;;;;79.50;38.30;;;;;;;-0.89;75.08;99147.44;106272;1316;22398;-58
2021/12/05 13:23:12;;;;;;;166.00;60.70;;;;;;;-0.92;75.38;99140.86;105242;1320;22399;-58
2021/12/05 13:26:06;;;;;;;130.90;48.00;;;;;;;-0.93;75.53;99138.02;106098;1316;138291;-58
2021/12/05 13:28:56;;;;;;;62.20;29.00;;;;;;;-0.94;75.75;99139.27;106272;1316;22526;-58
2021/12/05 13:31:27;;;;;;;48.80;23.60;;;;;;;-0.96;75.67;99138.02;106153;1316;139400;-58
2021/12/05 13:34:29;;;;;;;43.30;22.80;;;;;;;-0.98;75.38;99140.06;106289;1316;23601;-58
2021/12/05 13:37:20;;;;;;;118.00;51.50;;;;;;;-0.99;75.65;99138.81;106066;1316;138227;-58
2021/12/05 13:39:59;;;;;;;109.30;48.50;;;;;;;-1.03;75.79;99136.45;106225;1316;23274;-58
2021/12/05 13:42:36;;;;;;;55.50;30.10;;;;;;;-1.05;76.04;99143.98;106150;1316;139338;-57
2021/12/05 13:45:08;;;;;;;53.50;28.50;;;;;;;-1.06;76.31;99144.45;106312;1315;24547;-57
2021/12/05 13:47:39;;;;;;;54.60;28.10;;;;;;;-1.07;76.54;99143.00;106233;1316;23516;-58
2021/12/05 13:50:23;;;;;;;51.20;27.10;;;;;;;-1.07;76.96;99144.61;106223;1316;138210;-58
2021/12/05 13:53:14;;;;;;;80.20;37.60;;;;;;;-1.08;77.10;99147.48;106222;1316;23375;-58
2021/12/05 13:55:43;;;;;;;61.20;29.50;;;;;;;-1.11;77.45;99152.38;106180;1316;138796;-58
2021/12/05 13:58:19;;;;;;;51.90;26.60;;;;;;;-1.14;77.49;99151.52;106316;1315;22610;-59
2021/12/05 14:01:15;;;;;;;53.10;27.10;;;;;;;-1.17;77.76;99148.39;106185;1316;138376;-58
2021/12/05 14:03:52;;;;;;;69.40;34.50;;;;;;;-1.23;77.74;99155.20;106167;1316;22622;-58
2021/12/05 14:06:27;;;;;;;54.70;29.00;;;;;;;-1.28;78.00;99163.11;106231;1315;138768;-58
2021/12/05 14:09:07;;;;;;;113.50;41.90;;;;;;;-1.33;78.21;99164.02;106263;1316;22460;-58
2021/12/05 14:11:37;;;;;;;64.70;30.60;;;;;;;-1.38;78.54;99167.17;106300;1316;22439;-58
2021/12/05 14:14:05;;;;;;;256.50;66.90;;;;;;;-1.45;78.56;99169.23;106168;1316;140156;-58
2021/12/05 14:16:36;;;;;;;73.60;34.20;;;;;;;-1.50;78.93;99172.80;106335;1316;23655;-58
2021/12/05 14:19:06;;;;;;;74.70;34.40;;;;;;;-1.54;79.15;99177.77;106188;1315;138716;-58
2021/12/05 14:21:43;;;;;;;68.90;33.30;;;;;;;-1.59;79.27;99176.98;106287;1316;22624;-58
2021/12/05 14:24:12;;;;;;;251.50;72.20;;;;;;;-1.63;79.54;99181.21;106097;1315;139398;-58
2021/12/05 14:26:40;;;;;;;71.30;36.00;;;;;;;-1.67;79.63;99178.11;106322;1316;22410;-58
2021/12/05 14:29:17;;;;;;;81.40;36.40;;;;;;;-1.72;79.98;99179.75;106311;1315;23740;-58
2021/12/05 14:31:51;;;;;;;62.30;32.10;;;;;;;-1.77;80.07;99185.36;106018;1318;138254;-57
2021/12/05 14:34:19;;;;;;;59.40;32.00;;;;;;;-1.81;80.14;99192.75;106323;1315;22494;-58
2021/12/05 14:37:00;;;;;;;66.80;33.30;;;;;;;-1.84;80.39;99195.25;106142;1316;139212;-56
2021/12/05 14:39:44;;;;;;;58.30;30.00;;;;;;;-1.89;80.40;99190.16;106278;1316;22552;-56
2021/12/05 14:42:18;;;;;;;60.00;33.50;;;;;;;-1.92;80.50;99191.37;106187;1315;139143;-56
2021/12/05 14:44:50;;;;;;;75.20;35.30;;;;;;;-1.99;80.69;99196.55;106318;1316;22659;-55
2021/12/05 14:47:20;;;;;;;75.40;38.00;;;;;;;-2.03;80.98;99199.95;106293;1315;22509;-56
2021/12/05 14:49:57;;;;;;;87.70;42.50;;;;;;;-2.07;80.94;99205.73;106168;1316;138574;-56
2021/12/05 14:52:29;;;;;;;156.10;63.60;;;;;;;-2.10;81.09;99211.83;106209;1315;23000;-56
2021/12/05 14:54:58;;;;;;;84.60;38.60;;;;;;;-2.12;81.30;99215.15;106188;1316;138660;-56
2021/12/05 14:57:29;;;;;;;71.90;33.40;;;;;;;-2.17;81.28;99218.92;106284;1316;22584;-56
2021/12/05 15:00:18;;;;;;;58.40;29.40;;;;;;;-2.20;81.25;99225.96;105380;1321;138679;-56
2021/12/05 15:02:46;;;;;;;50.30;26.70;;;;;;;-2.23;81.43;99225.29;106206;1316;22478;-55
2021/12/05 15:05:17;;;;;;;51.60;26.10;;;;;;;-2.26;81.48;99225.61;106327;1316;22515;-56
2021/12/05 15:07:47;;;;;;;48.90;26.70;;;;;;;-2.27;81.54;99225.86;106065;1316;143937;-56
2021/12/05 15:10:19;;;;;;;48.10;24.80;;;;;;;-2.29;81.62;99235.81;106268;1315;23582;-55
2021/12/05 15:12:51;;;;;;;77.40;35.30;;;;;;;-2.30;81.50;99242.94;106213;1316;138444;-56
2021/12/05 15:15:21;;;;;;;58.50;29.90;;;;;;;-2.32;81.57;99248.84;106218;1315;22428;-55
2021/12/05 15:17:54;;;;;;;55.70;30.10;;;;;;;-2.33;81.72;99252.12;106057;1320;140225;-55
2021/12/05 15:20:29;;;;;;;45.50;26.60;;;;;;;-2.33;81.61;99252.72;106303;1316;22584;-55
2021/12/05 15:23:03;;;;;;;48.90;28.00;;;;;;;-2.34;81.54;99251.96;106369;1315;23159;-55
2021/12/05 15:25:31;;;;;;;57.20;29.70;;;;;;;-2.35;81.46;99252.77;106161;1316;140284;-55
2021/12/05 15:28:00;;;;;;;59.90;31.70;;;;;;;-2.35;81.51;99258.31;106232;1315;22504;-55
2021/12/05 15:30:37;;;;;;;70.50;36.00;;;;;;;-2.35;81.51;99260.77;106220;1316;138733;-55
2021/12/05 15:33:12;;;;;;;52.20;27.10;;;;;;;-2.36;81.38;99266.35;106196;1316;22505;-55
2021/12/05 15:35:40;;;;;;;49.60;26.90;;;;;;;-2.39;81.03;99258.96;106213;1316;22567;-57
2021/12/05 15:38:11;;;;;;;45.50;26.20;;;;;;;-2.44;80.94;99256.20;106107;1315;138450;-57
2021/12/05 15:40:44;;;;;;;62.60;30.30;;;;;;;-2.48;80.93;99258.06;106340;1316;22452;-57
2021/12/05 15:43:15;;;;;;;53.50;28.30;;;;;;;-2.52;80.92;99255.62;105708;1316;276494;-58
2021/12/05 15:45:44;;;;;;;54.50;28.90;;;;;;;-2.56;80.89;99256.83;106325;1316;22506;-57
2021/12/05 15:48:34;;;;;;;63.00;31.90;;;;;;;-2.59;80.88;99254.72;106218;1316;138602;-57
2021/12/05 15:51:05;;;;;;;88.60;41.60;;;;;;;-2.62;80.96;99245.25;106328;1315;22557;-58
2021/12/05 15:53:35;;;;;;;80.00;38.00;;;;;;;-2.64;80.85;99241.37;106369;1315;22442;-58
2021/12/05 15:56:07;;;;;;;77.10;37.40;;;;;;;-2.67;80.89;99243.52;106189;1316;139595;-58
2021/12/05 15:58:52;;;;;;;71.90;34.60;;;;;;;-2.73;80.65;99238.57;106213;1315;22458;-58
2021/12/05 16:01:22;;;;;;;83.00;40.50;;;;;;;-2.78;80.54;99239.36;106235;1315;138519;-57
2021/12/05 16:03:53;;;;;;;66.70;33.70;;;;;;;-2.82;80.47;99241.25;106296;1315;23687;-57
2021/12/05 16:06:30;;;;;;;73.30;34.20;;;;;;;-2.86;80.67;99232.31;106204;1316;138830;-58
2021/12/05 16:08:58;;;;;;;62.30;30.90;;;;;;;-2.92;80.48;99229.91;106289;1316;22499;-58
2021/12/05 16:11:27;;;;;;;84.90;38.10;;;;;;;-2.95;80.56;99232.23;106221;1316;22554;-58
2021/12/05 16:13:56;;;;;;;134.20;56.80;;;;;;;-2.97;80.58;99229.70;106179;1315;139349;-58
2021/12/05 16:16:26;;;;;;;112.40;57.70;;;;;;;-3.01;80.71;99228.13;105242;1322;22383;-58
2021/12/05 16:18:56;;;;;;;106.20;47.40;;;;;;;-3.04;80.71;99229.95;106182;1315;138571;-58
2021/12/05 16:21:28;;;;;;;85.20;38.90;;;;;;;-3.08;80.66;99230.27;106231;1316;22426;-58
2021/12/05 16:24:17;;;;;;;83.50;37.70;;;;;;;-3.13;80.89;99235.29;106218;1316;138875;-59
2021/12/05 16:26:47;;;;;;;74.20;36.50;;;;;;;-3.17;81.07;99235.19;106301;1315;22479;-58
2021/12/05 16:29:22;;;;;;;94.70;43.30;;;;;;;-3.19;81.11;99232.41;106327;1315;22396;-58
2021/12/05 16:31:57;;;;;;;86.10;43.80;;;;;;;-3.20;81.25;99225.03;106174;1315;138568;-58
2021/12/05 16:34:27;;;;;;;70.10;35.80;;;;;;;-3.22;81.32;99214.81;106238;1315;22690;-58
2021/12/05 16:37:03;;;;;;;124.40;49.30;;;;;;;-3.23;81.52;99215.33;106212;1315;139343;-59
2021/12/05 16:39:42;;;;;;;81.70;38.00;;;;;;;-3.25;81.78;99214.93;106302;1316;22481;-59
2021/12/05 16:42:14;;;;;;;81.80;38.10;;;;;;;-3.26;81.75;99223.23;106226;1316;139484;-58
2021/12/05 16:44:57;;;;;;;175.40;66.80;;;;;;;-3.26;81.84;99225.52;106270;1316;22599;-59
2021/12/05 16:47:28;;;;;;;145.20;54.60;;;;;;;-3.24;82.17;99229.62;106297;1315;22591;-58
2021/12/05 16:49:58;;;;;;;137.20;53.00;;;;;;;-3.26;82.35;99229.32;106113;1315;138494;-58
2021/12/05 16:52:39;;;;;;;91.20;39.30;;;;;;;-3.26;82.47;99239.27;106105;1315;22409;-58
2021/12/05 16:55:22;;;;;;;65.40;31.70;;;;;;;-3.25;82.68;99247.14;105622;1315;138462;-59
2021/12/05 16:58:04;;;;;;;73.80;36.30;;;;;;;-3.22;82.74;99251.91;106158;1316;22465;-58
2021/12/05 17:00:36;;;;;;;71.80;35.10;;;;;;;-3.20;82.86;99246.05;106196;1316;138895;-60